Time;durP1;ratioP1;P1;durP2;ratioP2;P2;SDS_P1;SDS_P2;PMS_P1;PMS_P2;Temp;Humidity;BMP_temperature;BMP_pressure;BME280_temperature;BME280_humidity;BME280_pressure;Samples;Min_cycle;Max_cycle;Signal;HPM_P1;HPM_P2
2021/07/10 00:00:53;;;;;;;12.43;11.27;;;;;;;11.56;100.00;98485.47;5012635;28;20793;-69
2021/07/10 00:03:21;;;;;;;13.83;12.47;;;;;;;11.53;100.00;98485.78;5022034;28;20596;-72
2021/07/10 00:05:49;;;;;;;14.70;13.30;;;;;;;11.54;100.00;98482.13;5019863;28;20231;-72
2021/07/10 00:08:17;;;;;;;13.60;12.20;;;;;;;11.52;100.00;98490.25;5018269;28;20290;-71
2021/07/10 00:10:45;;;;;;;16.10;12.07;;;;;;;11.44;100.00;98482.25;5020131;28;20212;-72
2021/07/10 00:13:13;;;;;;;12.63;11.43;;;;;;;11.40;100.00;98489.69;5019657;28;20212;-72
2021/07/10 00:15:41;;;;;;;12.47;11.20;;;;;;;11.36;100.00;98487.50;5019412;28;20227;-71
2021/07/10 00:18:12;;;;;;;14.23;12.87;;;;;;;11.33;100.00;98493.13;5017785;28;20303;-72
2021/07/10 00:20:40;;;;;;;13.30;11.90;;;;;;;11.26;100.00;98488.47;5020780;28;20351;-72
2021/07/10 00:23:08;;;;;;;15.73;12.73;;;;;;;11.22;100.00;98486.25;5023610;28;20211;-70
2021/07/10 00:25:37;;;;;;;10.73;9.73;;;;;;;11.18;100.00;98485.75;5016560;28;20227;-72
2021/07/10 00:28:06;;;;;;;8.40;7.67;;;;;;;11.12;100.00;98475.75;5022150;28;20212;-70
2021/07/10 00:30:34;;;;;;;115.97;30.67;;;;;;;11.08;100.00;98475.25;5012509;28;20255;-70
2021/07/10 00:33:02;;;;;;;47.13;12.83;;;;;;;11.05;100.00;98477.34;5017623;28;20211;-71
2021/07/10 00:35:32;;;;;;;11.93;10.50;;;;;;;11.04;100.00;98470.38;5017245;28;20233;-73
2021/07/10 00:38:00;;;;;;;11.23;10.40;;;;;;;11.04;100.00;98470.38;5018759;28;20339;-70
2021/07/10 00:40:28;;;;;;;12.03;10.87;;;;;;;11.09;100.00;98460.13;5020661;28;20687;-71
2021/07/10 00:42:56;;;;;;;11.73;10.63;;;;;;;11.07;100.00;98451.50;5020574;28;20230;-72
2021/07/10 00:45:24;;;;;;;11.93;10.93;;;;;;;11.03;100.00;98456.31;5014079;28;20228;-72
2021/07/10 00:47:52;;;;;;;13.33;11.47;;;;;;;11.02;100.00;98452.00;5014748;28;20568;-71
2021/07/10 00:50:23;;;;;;;19.77;14.30;;;;;;;11.06;100.00;98453.34;5014677;28;20205;-69
2021/07/10 00:52:53;;;;;;;23.63;14.27;;;;;;;11.24;100.00;98447.13;5017199;28;20204;-70
2021/07/10 00:55:21;;;;;;;21.90;12.30;;;;;;;11.20;100.00;98445.78;5014639;28;20235;-72
2021/07/10 00:57:51;;;;;;;24.13;12.43;;;;;;;11.20;100.00;98448.44;5015085;28;20655;-71
2021/07/10 01:00:21;;;;;;;16.50;12.17;;;;;;;11.16;100.00;98445.25;5020606;28;20201;-71
2021/07/10 01:02:51;;;;;;;74.37;19.67;;;;;;;11.11;100.00;98437.78;5016090;28;20220;-72
2021/07/10 01:05:21;;;;;;;28.23;14.57;;;;;;;11.11;100.00;98434.28;5016543;28;20321;-71
2021/07/10 01:07:49;;;;;;;33.23;15.93;;;;;;;11.09;100.00;98441.56;5019563;28;20215;-72
2021/07/10 01:10:19;;;;;;;17.63;13.53;;;;;;;11.12;100.00;98441.25;5013942;28;20201;-70
2021/07/10 01:12:48;;;;;;;15.33;13.70;;;;;;;11.15;100.00;98438.28;5016575;28;20541;-71
2021/07/10 01:15:18;;;;;;;14.50;13.03;;;;;;;11.19;100.00;98439.66;5020041;28;20228;-71
2021/07/10 01:17:47;;;;;;;25.43;16.00;;;;;;;11.25;100.00;98441.69;5018417;28;20219;-71
2021/07/10 01:20:16;;;;;;;24.83;15.73;;;;;;;11.23;100.00;98432.22;5018822;28;20227;-70
2021/07/10 01:22:46;;;;;;;16.03;14.37;;;;;;;11.32;100.00;98443.72;5016343;28;20208;-70
2021/07/10 01:25:16;;;;;;;14.23;12.97;;;;;;;11.31;100.00;98439.38;5019690;28;20196;-72
2021/07/10 01:27:44;;;;;;;25.90;16.20;;;;;;;11.31;100.00;98442.88;5015523;28;20216;-72
2021/07/10 01:30:14;;;;;;;20.37;13.20;;;;;;;11.32;100.00;98446.38;5013583;28;20203;-72
2021/07/10 01:32:45;;;;;;;19.13;14.07;;;;;;;11.37;100.00;98449.38;5020405;28;20545;-70
2021/07/10 01:35:13;;;;;;;13.93;12.67;;;;;;;11.35;100.00;98440.75;5019197;28;20316;-70
2021/07/10 01:37:43;;;;;;;21.70;14.73;;;;;;;11.36;100.00;98450.38;5016714;28;20216;-72
2021/07/10 01:40:14;;;;;;;31.03;14.73;;;;;;;11.41;100.00;98445.41;5019188;28;20292;-70
2021/07/10 01:42:43;;;;;;;32.60;16.90;;;;;;;11.34;100.00;98439.06;5018369;28;20212;-71
2021/07/10 01:45:12;;;;;;;40.37;16.33;;;;;;;11.34;100.00;98433.78;5016081;28;20200;-71
2021/07/10 01:47:41;;;;;;;46.67;18.00;;;;;;;11.32;100.00;98435.75;5014013;28;20196;-73
2021/07/10 01:50:10;;;;;;;40.33;16.27;;;;;;;11.36;100.00;98424.63;5016172;28;20224;-73
2021/07/10 01:52:40;;;;;;;45.13;16.93;;;;;;;11.28;100.00;98435.22;5017625;28;20209;-72
2021/07/10 01:55:12;;;;;;;40.80;17.87;;;;;;;11.22;100.00;98434.06;5016043;28;20303;-71
2021/07/10 01:57:42;;;;;;;28.13;14.70;;;;;;;11.26;100.00;98434.53;5018028;28;20553;-72
2021/07/10 02:00:11;;;;;;;22.83;14.60;;;;;;;11.23;100.00;98422.44;5020758;28;20210;-71
2021/07/10 02:02:39;;;;;;;81.63;22.03;;;;;;;11.23;100.00;98421.59;5020942;28;20208;-72
2021/07/10 02:05:09;;;;;;;26.77;15.73;;;;;;;11.21;100.00;98419.13;5018221;28;20219;-73
2021/07/10 02:07:37;;;;;;;17.47;12.73;;;;;;;11.20;100.00;98414.81;5019349;28;20712;-72
2021/07/10 02:10:06;;;;;;;34.50;15.90;;;;;;;11.26;100.00;98422.13;5014446;28;20205;-72
2021/07/10 02:12:36;;;;;;;23.13;13.70;;;;;;;11.32;100.00;98411.88;5022476;28;20216;-73
2021/07/10 02:15:04;;;;;;;23.33;14.00;;;;;;;11.21;100.00;98420.94;5016387;28;20232;-70
2021/07/10 02:17:32;;;;;;;15.43;12.23;;;;;;;11.26;100.00;98415.97;5021774;28;20209;-72
2021/07/10 02:20:01;;;;;;;20.33;13.10;;;;;;;11.19;100.00;98420.25;5019742;28;20216;-72
2021/07/10 02:22:28;;;;;;;29.60;11.80;;;;;;;11.19;100.00;98417.59;5014527;28;20593;-74
2021/07/10 02:24:56;;;;;;;19.73;10.73;;;;;;;11.23;100.00;98416.28;5019898;28;20208;-71
2021/07/10 02:27:24;;;;;;;22.53;11.03;;;;;;;11.19;100.00;98422.91;5020306;28;20223;-72
2021/07/10 02:29:54;;;;;;;18.33;11.37;;;;;;;11.19;100.00;98415.78;5022636;28;20513;-72
2021/07/10 02:32:22;;;;;;;23.50;11.57;;;;;;;11.05;100.00;98419.00;5020539;28;20621;-70
2021/07/10 02:34:50;;;;;;;16.27;10.23;;;;;;;11.05;100.00;98424.31;5019136;28;20357;-71
2021/07/10 02:37:18;;;;;;;16.10;9.83;;;;;;;11.12;100.00;98425.34;5014695;28;20224;-72
2021/07/10 02:39:46;;;;;;;47.53;15.53;;;;;;;11.09;100.00;98425.66;5020840;28;20215;-73
2021/07/10 02:42:14;;;;;;;33.50;12.03;;;;;;;11.05;100.00;98419.84;5017114;28;20205;-71
2021/07/10 02:44:42;;;;;;;26.37;10.87;;;;;;;11.07;100.00;98409.06;5013587;28;20795;-71
2021/07/10 02:47:11;;;;;;;35.07;12.73;;;;;;;11.06;100.00;98404.75;5015898;28;20240;-72
2021/07/10 02:49:39;;;;;;;32.13;10.93;;;;;;;11.07;100.00;98407.28;5013537;28;20668;-72
2021/07/10 02:52:08;;;;;;;33.03;13.07;;;;;;;11.04;100.00;98398.78;5022660;28;20600;-71
2021/07/10 02:54:36;;;;;;;58.77;14.67;;;;;;;10.99;100.00;98394.78;5014742;28;20200;-71
2021/07/10 02:57:05;;;;;;;24.53;7.57;;;;;;;11.04;100.00;98396.13;5020092;28;20235;-73
2021/07/10 02:59:33;;;;;;;25.30;5.63;;;;;;;11.06;100.00;98399.44;5020621;28;20704;-73
2021/07/10 03:02:00;;;;;;;15.13;10.50;;;;;;;11.02;100.00;98403.41;5014608;28;20245;-71
2021/07/10 03:04:30;;;;;;;29.00;11.97;;;;;;;11.06;100.00;98404.75;5017936;28;20694;-72
2021/07/10 03:06:58;;;;;;;30.13;12.10;;;;;;;11.03;100.00;98405.94;5015901;28;20228;-71
2021/07/10 03:09:26;;;;;;;25.80;11.57;;;;;;;11.04;100.00;98414.69;5018174;28;20220;-72
2021/07/10 03:11:54;;;;;;;30.40;13.27;;;;;;;11.04;100.00;98417.34;5022185;28;20484;-71
2021/07/10 03:14:22;;;;;;;39.30;13.50;;;;;;;11.04;100.00;98420.84;5018043;28;20673;-72
2021/07/10 03:16:50;;;;;;;18.93;11.20;;;;;;;11.03;100.00;98421.00;5017075;28;20236;-72
2021/07/10 03:19:18;;;;;;;20.90;11.17;;;;;;;11.08;100.00;98418.69;5020175;28;20237;-72
2021/07/10 03:21:47;;;;;;;43.13;12.87;;;;;;;11.02;100.00;98420.16;5018196;28;20211;-72
2021/07/10 03:24:15;;;;;;;26.63;13.50;;;;;;;11.02;100.00;98414.03;5014059;28;20230;-72
2021/07/10 03:26:43;;;;;;;35.37;12.57;;;;;;;11.06;100.00;98418.03;4996882;28;20217;-73
2021/07/10 03:29:11;;;;;;;32.33;12.67;;;;;;;11.11;100.00;98413.06;4994510;28;20244;-72
2021/07/10 03:31:39;;;;;;;87.83;19.10;;;;;;;11.05;100.00;98416.34;5001358;28;20527;-72
2021/07/10 03:34:07;;;;;;;47.57;12.57;;;;;;;11.02;100.00;98411.38;4996524;28;20268;-72
2021/07/10 03:36:35;;;;;;;68.33;8.40;;;;;;;11.05;100.00;98416.34;4995388;28;20240;-73
2021/07/10 03:39:05;;;;;;;67.53;8.20;;;;;;;11.09;100.00;98420.34;4993590;28;20213;-72
2021/07/10 03:41:33;;;;;;;5.60;4.90;;;;;;;11.05;100.00;98413.72;4989498;28;20212;-71
2021/07/10 03:44:01;;;;;;;10.23;7.07;;;;;;;11.01;100.00;98423.81;4992938;28;20206;-71
2021/07/10 03:46:29;;;;;;;14.63;11.77;;;;;;;11.04;100.00;98425.31;4988565;28;20244;-72
2021/07/10 03:48:57;;;;;;;7.27;6.77;;;;;;;11.00;100.00;98416.84;4997075;28;20209;-73
2021/07/10 03:51:26;;;;;;;12.67;6.30;;;;;;;11.05;100.00;98417.22;4997054;28;20208;-74
2021/07/10 03:53:54;;;;;;;6.60;6.00;;;;;;;10.99;100.00;98420.50;4989290;28;20218;-73
2021/07/10 03:56:25;;;;;;;12.70;7.40;;;;;;;11.06;100.00;98415.38;4992191;28;20242;-74
2021/07/10 03:58:53;;;;;;;18.00;9.20;;;;;;;11.12;100.00;98415.59;4994615;28;20221;-71
2021/07/10 04:01:21;;;;;;;10.20;5.47;;;;;;;11.09;100.00;98415.06;4993752;28;20210;-73
2021/07/10 04:03:49;;;;;;;7.83;5.33;;;;;;;11.11;100.00;98410.41;4997872;28;20298;-72
2021/07/10 04:06:18;;;;;;;6.33;4.43;;;;;;;11.02;100.00;98408.72;4998206;28;20698;-72
2021/07/10 04:08:46;;;;;;;5.97;5.23;;;;;;;11.05;100.00;98400.44;4991696;28;20217;-72
2021/07/10 04:11:14;;;;;;;7.43;4.80;;;;;;;11.13;100.00;98401.34;4996834;28;20206;-73
2021/07/10 04:13:44;;;;;;;6.10;5.60;;;;;;;11.12;100.00;98404.13;4999773;28;20212;-74
2021/07/10 04:16:12;;;;;;;16.53;8.87;;;;;;;11.20;100.00;98408.66;4998869;28;20472;-73
2021/07/10 04:18:40;;;;;;;11.67;4.50;;;;;;;11.24;100.00;98405.53;4998057;28;20577;-73
2021/07/10 04:21:08;;;;;;;20.87;4.97;;;;;;;11.09;100.00;98410.59;4992494;28;20208;-73
2021/07/10 04:23:36;;;;;;;43.77;6.67;;;;;;;11.13;100.00;98400.47;4997640;28;20201;-70
2021/07/10 04:26:04;;;;;;;14.80;5.07;;;;;;;11.02;100.00;98412.22;4997504;28;20236;-73
2021/07/10 04:28:32;;;;;;;9.40;4.87;;;;;;;11.10;100.00;98406.09;4997771;28;20854;-75
2021/07/10 04:31:02;;;;;;;26.97;6.77;;;;;;;11.11;100.00;98421.03;4996282;28;20216;-73
2021/07/10 04:33:30;;;;;;;5.37;4.87;;;;;;;11.31;100.00;98411.03;4997121;28;20306;-71
2021/07/10 04:35:58;;;;;;;18.17;5.43;;;;;;;11.13;100.00;98411.09;4992433;28;20255;-72
2021/07/10 04:38:26;;;;;;;20.93;5.30;;;;;;;11.10;100.00;98401.66;4996175;28;20201;-72
2021/07/10 04:40:54;;;;;;;4.30;4.00;;;;;;;11.14;100.00;98410.94;4998346;28;20212;-69
2021/07/10 04:43:22;;;;;;;5.53;4.70;;;;;;;11.25;100.00;98404.53;4995871;28;20210;-70
2021/07/10 04:45:50;;;;;;;9.40;5.17;;;;;;;11.26;100.00;98403.56;4993345;28;20232;-68
2021/07/10 04:48:19;;;;;;;8.57;5.20;;;;;;;11.33;100.00;98401.06;4994745;28;20536;-71
2021/07/10 04:50:47;;;;;;;4.87;4.57;;;;;;;11.52;100.00;98409.81;4993132;28;20661;-68
2021/07/10 04:53:15;;;;;;;15.20;5.37;;;;;;;11.43;100.00;98412.44;4993699;28;20333;-69
2021/07/10 04:55:43;;;;;;;8.63;5.13;;;;;;;11.44;100.00;98403.47;4993010;28;20232;-69
2021/07/10 04:58:11;;;;;;;5.20;4.80;;;;;;;11.49;100.00;98410.13;5000646;28;20217;-68
2021/07/10 05:00:39;;;;;;;8.00;4.97;;;;;;;11.49;100.00;98412.78;4994603;28;20224;-69
2021/07/10 05:03:07;;;;;;;9.00;5.03;;;;;;;11.53;100.00;98406.97;4992635;28;20776;-68
2021/07/10 05:05:37;;;;;;;6.80;6.17;;;;;;;11.61;100.00;98402.72;4995057;28;20771;-70
2021/07/10 05:08:05;;;;;;;4.37;4.07;;;;;;;11.71;100.00;98406.06;4997272;28;20640;-69
2021/07/10 05:10:33;;;;;;;5.07;4.67;;;;;;;11.70;100.00;98401.75;4995001;28;20204;-67
2021/07/10 05:13:02;;;;;;;4.70;4.30;;;;;;;11.76;100.00;98400.28;4995672;28;20726;-69
2021/07/10 05:15:30;;;;;;;4.70;4.40;;;;;;;11.73;100.00;98393.44;4992998;28;20247;-68
2021/07/10 05:17:58;;;;;;;10.23;5.57;;;;;;;11.81;100.00;98393.47;4997503;28;20664;-67
2021/07/10 05:20:27;;;;;;;8.70;5.67;;;;;;;11.87;100.00;98397.31;4995274;28;20220;-68
2021/07/10 05:22:56;;;;;;;5.47;4.97;;;;;;;11.98;100.00;98398.81;4995493;28;20215;-69
2021/07/10 05:25:24;;;;;;;6.70;6.13;;;;;;;12.06;100.00;98388.25;4994213;28;20209;-69
2021/07/10 05:27:52;;;;;;;5.90;5.40;;;;;;;12.00;100.00;98380.91;4995945;28;20213;-75
2021/07/10 05:30:21;;;;;;;7.00;6.50;;;;;;;12.14;100.00;98393.56;4997225;28;20677;-74
2021/07/10 05:32:49;;;;;;;7.63;7.03;;;;;;;12.26;100.00;98401.19;5002873;28;20267;-71
2021/07/10 05:35:18;;;;;;;6.77;6.17;;;;;;;12.24;100.00;98393.41;5000692;28;20232;-75
2021/07/10 05:37:47;;;;;;;8.27;7.57;;;;;;;12.35;100.00;98399.38;4999029;28;20255;-75
2021/07/10 05:40:17;;;;;;;6.50;5.67;;;;;;;12.48;100.00;98394.41;5001762;28;20227;-75
2021/07/10 05:42:47;;;;;;;5.90;5.50;;;;;;;12.61;100.00;98398.41;5000794;28;20208;-73
2021/07/10 05:45:16;;;;;;;5.63;5.23;;;;;;;12.74;100.00;98401.38;5000834;28;20215;-75
2021/07/10 05:47:44;;;;;;;7.57;5.93;;;;;;;12.69;100.00;98401.03;5005990;28;20239;-74
2021/07/10 05:50:13;;;;;;;6.73;5.97;;;;;;;12.62;100.00;98406.19;4995841;28;20213;-73
2021/07/10 05:52:41;;;;;;;4.90;4.60;;;;;;;12.76;100.00;98398.56;4998098;28;20583;-75
2021/07/10 05:55:09;;;;;;;3.83;3.63;;;;;;;12.77;100.00;98403.69;4994197;28;20609;-74
2021/07/10 05:57:39;;;;;;;8.97;4.73;;;;;;;12.85;100.00;98397.53;4998736;28;20712;-74
2021/07/10 06:00:09;;;;;;;4.07;3.77;;;;;;;13.03;100.00;98414.13;5002795;28;20630;-75
2021/07/10 06:02:37;;;;;;;6.73;4.57;;;;;;;13.16;100.00;98402.13;4999350;28;20208;-74
2021/07/10 06:05:08;;;;;;;6.07;5.50;;;;;;;13.20;100.00;98408.78;5001931;28;20677;-74
2021/07/10 06:07:38;;;;;;;5.57;5.03;;;;;;;13.31;100.00;98415.56;4999494;28;20201;-73
2021/07/10 06:10:08;;;;;;;4.97;4.57;;;;;;;13.34;100.00;98409.91;5001829;28;20225;-75
2021/07/10 06:12:36;;;;;;;6.80;6.30;;;;;;;13.46;100.00;98410.38;5001393;28;20673;-74
2021/07/10 06:15:08;;;;;;;4.10;3.80;;;;;;;13.57;100.00;98411.81;5000195;28;20205;-73
2021/07/10 06:17:36;;;;;;;5.97;5.43;;;;;;;13.48;100.00;98413.72;4998465;28;20693;-73
2021/07/10 06:20:05;;;;;;;4.90;4.50;;;;;;;13.75;100.00;98416.91;4999482;28;20642;-72
2021/07/10 06:22:33;;;;;;;5.37;4.87;;;;;;;13.74;100.00;98409.91;5001055;28;20216;-74
2021/07/10 06:25:01;;;;;;;6.33;5.67;;;;;;;13.72;100.00;98412.78;4999908;28;20302;-73
2021/07/10 06:27:29;;;;;;;5.83;5.30;;;;;;;13.70;100.00;98414.78;4999028;28;20234;-75
2021/07/10 06:29:57;;;;;;;4.80;4.50;;;;;;;13.75;100.00;98407.09;4995771;28;20653;-67
2021/07/10 06:32:26;;;;;;;4.33;4.03;;;;;;;13.88;100.00;98413.69;5002529;28;20227;-69
2021/07/10 06:34:54;;;;;;;6.57;5.10;;;;;;;13.82;100.00;98406.38;4994724;28;20234;-70
2021/07/10 06:37:23;;;;;;;14.37;13.03;;;;;;;13.75;100.00;98411.56;5001594;28;20232;-69
2021/07/10 06:39:51;;;;;;;10.73;9.73;;;;;;;13.64;100.00;98409.31;5000591;28;20209;-70
2021/07/10 06:42:20;;;;;;;6.43;5.63;;;;;;;13.65;100.00;98410.97;4993793;28;20213;-67
2021/07/10 06:44:48;;;;;;;6.10;5.07;;;;;;;13.69;100.00;98413.13;4993931;28;20208;-68
2021/07/10 06:47:18;;;;;;;10.53;5.60;;;;;;;13.86;100.00;98413.88;4995454;28;20220;-68
2021/07/10 06:49:47;;;;;;;5.90;5.37;;;;;;;13.82;100.00;98417.84;4994439;28;20217;-69
2021/07/10 06:52:16;;;;;;;7.07;5.53;;;;;;;13.87;100.00;98417.34;4995075;28;20209;-72
2021/07/10 06:54:43;;;;;;;9.17;6.73;;;;;;;13.96;100.00;98413.63;4995165;28;20214;-67
2021/07/10 06:57:11;;;;;;;8.67;7.77;;;;;;;14.06;100.00;98417.91;4994606;28;20780;-69
2021/07/10 06:59:39;;;;;;;6.17;5.70;;;;;;;14.07;100.00;98415.06;4991188;28;20217;-68
2021/07/10 07:02:08;;;;;;;6.73;6.03;;;;;;;14.11;100.00;98412.88;4992921;28;20347;-68
2021/07/10 07:04:37;;;;;;;12.70;5.87;;;;;;;14.34;100.00;98407.56;4997053;28;20288;-70
2021/07/10 07:07:06;;;;;;;6.80;5.33;;;;;;;14.30;100.00;98412.41;4993420;28;20231;-70
2021/07/10 07:09:34;;;;;;;5.63;4.77;;;;;;;14.31;100.00;98407.91;4993852;28;20609;-67
2021/07/10 07:12:02;;;;;;;4.70;4.30;;;;;;;14.32;100.00;98409.56;4992371;28;20347;-69
2021/07/10 07:14:30;;;;;;;6.77;5.43;;;;;;;14.21;100.00;98410.81;4999640;28;20217;-70
2021/07/10 07:16:59;;;;;;;4.97;4.57;;;;;;;14.22;100.00;98409.00;4995199;28;20276;-69
2021/07/10 07:19:29;;;;;;;7.03;4.37;;;;;;;14.31;100.00;98403.41;4996294;28;20201;-67
2021/07/10 07:22:23;;;;;;;6.17;5.50;;;;;;;14.35;100.00;98401.22;4991546;28;20602;-69
2021/07/10 07:24:51;;;;;;;6.93;6.33;;;;;;;14.32;100.00;98399.72;4997322;28;20216;-69
2021/07/10 07:27:19;;;;;;;6.80;6.10;;;;;;;14.30;100.00;98396.41;4997871;28;20229;-68
2021/07/10 07:29:47;;;;;;;6.87;6.27;;;;;;;14.47;100.00;98404.31;4995069;28;20213;-69
2021/07/10 07:32:15;;;;;;;7.97;7.17;;;;;;;14.41;100.00;98403.16;5003303;28;20232;-69
2021/07/10 07:34:47;;;;;;;8.27;7.47;;;;;;;14.43;100.00;98401.16;5015784;28;20209;-69
2021/07/10 07:37:16;;;;;;;7.70;7.00;;;;;;;14.38;100.00;98397.34;5020969;28;20382;-69
2021/07/10 07:39:46;;;;;;;8.27;7.47;;;;;;;14.52;100.00;98399.25;5015211;28;20213;-69
2021/07/10 07:42:15;;;;;;;7.93;7.20;;;;;;;14.48;100.00;98396.09;5016991;28;20204;-69
2021/07/10 07:44:44;;;;;;;8.80;7.90;;;;;;;14.45;100.00;98393.81;5015822;28;20819;-70
2021/07/10 07:47:13;;;;;;;8.03;7.33;;;;;;;14.54;100.00;98397.25;5013147;28;20231;-70
2021/07/10 07:49:42;;;;;;;7.83;7.13;;;;;;;14.58;100.00;98392.34;5017664;28;20204;-69
2021/07/10 07:52:10;;;;;;;8.40;7.70;;;;;;;14.68;100.00;98394.78;5019360;28;20211;-69
2021/07/10 07:54:38;;;;;;;12.10;11.00;;;;;;;14.78;100.00;98402.56;5015708;28;20216;-69
2021/07/10 07:57:08;;;;;;;58.10;15.30;;;;;;;14.74;100.00;98392.25;5019012;28;20228;-69
2021/07/10 07:59:36;;;;;;;40.20;31.93;;;;;;;14.91;100.00;98394.75;5014439;28;20224;-70
2021/07/10 08:02:05;;;;;;;8.47;6.43;;;;;;;14.95;100.00;98400.56;5017767;28;20556;-70
2021/07/10 08:04:33;;;;;;;6.63;6.13;;;;;;;14.94;100.00;98399.72;5015644;28;20208;-69
2021/07/10 08:07:01;;;;;;;6.93;6.33;;;;;;;15.29;100.00;98399.19;5015535;28;20239;-69
2021/07/10 08:09:29;;;;;;;6.37;5.80;;;;;;;15.49;100.00;98405.63;5016968;28;20232;-69
2021/07/10 08:11:57;;;;;;;6.40;5.87;;;;;;;15.53;100.00;98387.41;5017244;28;20616;-68
2021/07/10 08:14:27;;;;;;;8.83;8.00;;;;;;;15.80;100.00;98401.09;5015210;28;20793;-71
2021/07/10 08:16:55;;;;;;;10.53;5.67;;;;;;;15.75;100.00;98403.50;5016059;28;20224;-69
2021/07/10 08:19:23;;;;;;;6.23;5.63;;;;;;;15.88;100.00;98398.31;5018825;28;20228;-69
2021/07/10 08:21:51;;;;;;;5.93;5.43;;;;;;;15.87;100.00;98399.31;5016454;28;20215;-70
2021/07/10 08:24:19;;;;;;;5.30;4.90;;;;;;;15.94;100.00;98404.78;5018295;28;20683;-70
2021/07/10 08:26:47;;;;;;;4.93;4.63;;;;;;;15.94;100.00;98396.75;5018054;28;20240;-70
2021/07/10 08:29:15;;;;;;;4.60;4.30;;;;;;;16.07;100.00;98388.03;5018717;28;20219;-68
2021/07/10 08:31:44;;;;;;;5.30;4.77;;;;;;;16.27;100.00;98390.09;5019698;28;20196;-70
2021/07/10 08:34:13;;;;;;;5.00;4.70;;;;;;;16.33;100.00;98378.63;5019685;28;20302;-70
2021/07/10 08:36:41;;;;;;;4.43;4.13;;;;;;;16.66;100.00;98391.44;5018140;28;20231;-68
2021/07/10 08:39:09;;;;;;;4.13;3.83;;;;;;;16.95;100.00;98388.75;5016919;28;20227;-71
2021/07/10 08:41:38;;;;;;;4.30;4.00;;;;;;;17.11;100.00;98385.84;5015058;28;20204;-71
2021/07/10 08:44:06;;;;;;;4.37;4.07;;;;;;;16.92;100.00;98379.28;5014831;28;20211;-72
2021/07/10 08:46:34;;;;;;;3.70;3.50;;;;;;;16.99;100.00;98388.22;5013930;28;20232;-73
2021/07/10 08:49:04;;;;;;;4.60;4.30;;;;;;;17.07;100.00;98379.22;5017074;28;20208;-69
2021/07/10 08:51:32;;;;;;;4.70;4.40;;;;;;;17.19;100.00;98383.00;5015007;28;20205;-68
2021/07/10 08:54:00;;;;;;;4.27;3.33;;;;;;;17.71;100.00;98373.75;5017396;28;20749;-69
2021/07/10 08:56:28;;;;;;;6.73;4.73;;;;;;;17.74;100.00;98376.84;5017482;28;20231;-69
2021/07/10 08:58:56;;;;;;;4.90;4.60;;;;;;;17.72;100.00;98372.72;5020357;28;20235;-67
2021/07/10 09:01:24;;;;;;;4.87;4.47;;;;;;;17.90;100.00;98367.59;5014220;28;20212;-69
2021/07/10 09:03:53;;;;;;;3.20;3.10;;;;;;;18.29;100.00;98364.41;5016450;28;20267;-73
2021/07/10 09:06:22;;;;;;;4.07;3.87;;;;;;;18.10;100.00;98363.34;5019178;28;20727;-69
2021/07/10 09:08:53;;;;;;;3.90;3.60;;;;;;;18.15;97.73;98361.72;5023890;28;20322;-70
2021/07/10 09:11:21;;;;;;;2.37;2.27;;;;;;;18.25;98.57;98355.97;5025278;28;20702;-69
2021/07/10 09:13:52;;;;;;;3.90;2.37;;;;;;;18.39;100.00;98361.31;5022481;28;20363;-69
2021/07/10 09:16:25;;;;;;;3.27;3.00;;;;;;;18.36;99.06;98357.19;5023534;28;20232;-70
2021/07/10 09:18:55;;;;;;;2.90;2.70;;;;;;;18.61;97.06;98354.72;5025174;28;20246;-69
2021/07/10 09:21:40;;;;;;;3.47;3.27;;;;;;;18.36;96.71;98354.50;5024986;28;20207;-70
2021/07/10 09:24:10;;;;;;;3.20;3.00;;;;;;;18.72;96.05;98350.56;5019593;28;20209;-71
2021/07/10 09:26:43;;;;;;;3.57;3.37;;;;;;;18.66;98.70;98349.56;5020950;28;20231;-70
2021/07/10 09:29:13;;;;;;;3.33;3.13;;;;;;;18.59;94.48;98346.06;5022615;28;20200;-67
2021/07/10 09:31:43;;;;;;;4.23;4.03;;;;;;;18.61;94.38;98343.16;5021599;28;20200;-70
2021/07/10 09:34:14;;;;;;;3.37;3.17;;;;;;;18.98;90.10;98342.72;5022860;28;20210;-67
2021/07/10 09:36:53;;;;;;;3.10;2.80;;;;;;;18.61;94.95;98340.47;5022599;28;20399;-72
2021/07/10 09:39:23;;;;;;;4.53;3.40;;;;;;;18.62;97.80;98334.91;5020646;28;20227;-68
2021/07/10 09:41:51;;;;;;;3.03;2.70;;;;;;;19.20;91.49;98348.66;5023202;28;20557;-69
2021/07/10 09:44:18;;;;;;;4.90;3.33;;;;;;;19.32;88.67;98340.75;5025366;28;20204;-71
2021/07/10 09:46:47;;;;;;;2.77;2.57;;;;;;;19.36;90.57;98339.31;5016836;28;20228;-71
2021/07/10 09:49:23;;;;;;;3.47;3.27;;;;;;;19.44;86.02;98332.84;5027530;28;20447;-68
2021/07/10 09:51:59;;;;;;;3.67;3.47;;;;;;;19.27;91.49;98327.13;5025453;28;20211;-72
2021/07/10 09:54:32;;;;;;;3.57;2.93;;;;;;;19.34;92.15;98325.28;5023248;28;20206;-69
2021/07/10 09:57:10;;;;;;;3.57;3.37;;;;;;;19.28;91.21;98324.25;5022612;28;20234;-71
2021/07/10 09:59:40;;;;;;;2.97;2.83;;;;;;;19.42;90.81;98322.34;5018468;28;20224;-69
2021/07/10 10:02:16;;;;;;;5.03;2.73;;;;;;;19.31;88.87;98312.22;5025041;28;20688;-69
2021/07/10 10:04:45;;;;;;;3.17;2.97;;;;;;;19.42;93.29;98316.97;5023945;28;20328;-68
2021/07/10 10:07:17;;;;;;;2.43;2.23;;;;;;;19.50;92.70;98305.97;5024713;28;20257;-69
2021/07/10 10:09:46;;;;;;;2.90;2.70;;;;;;;19.64;93.65;98306.72;5022625;28;20224;-70
2021/07/10 10:12:14;;;;;;;3.30;3.10;;;;;;;19.86;85.93;98305.56;5022605;28;20204;-71
2021/07/10 10:14:45;;;;;;;2.50;2.40;;;;;;;19.44;90.21;98304.13;5025592;28;20216;-71
2021/07/10 10:17:14;;;;;;;4.27;3.20;;;;;;;19.53;91.36;98307.41;5017364;28;20235;-70
2021/07/10 10:19:43;;;;;;;3.23;2.47;;;;;;;19.49;88.28;98298.94;5017207;28;20240;-69
2021/07/10 10:22:13;;;;;;;2.63;2.43;;;;;;;19.37;89.49;98295.28;5018371;28;20224;-69
2021/07/10 10:24:44;;;;;;;2.07;2.00;;;;;;;19.86;89.96;98289.41;5016129;28;20447;-70
2021/07/10 10:27:12;;;;;;;2.80;2.60;;;;;;;20.13;86.18;98294.66;5017886;28;20239;-69
2021/07/10 10:29:40;;;;;;;2.03;1.93;;;;;;;20.30;83.87;98290.34;5019499;28;20347;-70
2021/07/10 10:32:09;;;;;;;2.60;2.40;;;;;;;20.04;84.96;98286.00;5016139;28;20212;-70
2021/07/10 10:34:40;;;;;;;2.27;2.17;;;;;;;20.02;81.45;98280.03;5020685;28;20219;-69
2021/07/10 10:37:10;;;;;;;1.97;1.97;;;;;;;20.03;84.34;98277.09;5017990;28;20227;-69
2021/07/10 10:39:39;;;;;;;2.50;2.40;;;;;;;20.11;84.65;98281.41;5020961;28;20230;-70
2021/07/10 10:42:10;;;;;;;3.33;3.13;;;;;;;20.23;85.40;98278.84;5019857;28;20209;-70
2021/07/10 10:44:40;;;;;;;5.57;4.13;;;;;;;20.25;83.53;98268.66;5018904;28;20204;-70
2021/07/10 10:47:10;;;;;;;3.17;2.97;;;;;;;20.48;79.94;98264.53;5014118;28;20224;-68
2021/07/10 10:49:44;;;;;;;3.63;3.43;;;;;;;20.88;77.59;98255.25;5017272;28;20209;-69
2021/07/10 10:52:36;;;;;;;3.43;2.90;;;;;;;21.45;75.43;98243.34;5017476;28;20220;-68
2021/07/10 10:55:09;;;;;;;3.37;3.17;;;;;;;20.92;75.35;98249.19;5021430;28;20626;-70
2021/07/10 10:57:41;;;;;;;3.17;3.07;;;;;;;20.52;78.36;98254.97;5017309;28;20696;-70
2021/07/10 11:00:12;;;;;;;4.13;3.27;;;;;;;21.07;80.63;98246.13;5018216;28;20228;-71
2021/07/10 11:02:59;;;;;;;2.47;2.37;;;;;;;21.53;76.25;98238.44;5019389;28;20683;-69
2021/07/10 11:05:54;;;;;;;3.87;2.93;;;;;;;22.05;74.43;98228.97;5018857;28;20219;-70
2021/07/10 11:08:34;;;;;;;4.83;2.67;;;;;;;22.50;72.76;98235.69;5018850;28;20236;-71
2021/07/10 11:11:38;;;;;;;2.67;2.47;;;;;;;23.18;68.87;98228.97;5016907;28;20228;-70
2021/07/10 11:14:18;;;;;;;9.57;5.83;;;;;;;23.33;72.49;98231.19;5023455;28;20240;-68
2021/07/10 11:17:20;;;;;;;7.07;3.80;;;;;;;24.17;60.70;98224.25;5019309;28;20251;-70
2021/07/10 11:19:54;;;;;;;5.57;4.70;;;;;;;23.54;65.70;98210.75;5020580;28;20224;-69
2021/07/10 11:22:53;;;;;;;5.27;3.20;;;;;;;23.70;64.61;98212.69;5018801;28;20215;-70
2021/07/10 11:26:07;;;;;;;4.60;4.17;;;;;;;23.71;63.42;98213.47;5018867;28;20212;-70
2021/07/10 11:28:52;;;;;;;3.00;2.90;;;;;;;24.00;58.02;98213.41;5015553;28;20223;-70
2021/07/10 11:31:25;;;;;;;3.07;2.97;;;;;;;23.81;62.74;98197.41;5015503;28;20621;-72
2021/07/10 11:34:15;;;;;;;4.00;2.70;;;;;;;23.82;64.24;98192.84;5016559;28;20294;-70